sensor_id;sensor_type;location;lat;lon;timestamp;pressure;altitude;pressure_sealevel;temperature;humidity
61035;BME280;46916;40.564;-7.958;2023-12-20T00:00:13;98870.53;;;6.06;83.64
61035;BME280;46916;40.564;-7.958;2023-12-20T00:02:13;98865.34;;;6.06;83.60
61035;BME280;46916;40.564;-7.958;2023-12-20T00:04:14;98860.00;;;6.09;83.02
61035;BME280;46916;40.564;-7.958;2023-12-20T00:06:15;98863.13;;;6.17;83.18
61035;BME280;46916;40.564;-7.958;2023-12-20T00:08:16;98862.00;;;6.23;83.36
61035;BME280;46916;40.564;-7.958;2023-12-20T00:10:17;98865.25;;;6.28;82.76
61035;BME280;46916;40.564;-7.958;2023-12-20T00:12:17;98858.13;;;6.31;82.97
61035;BME280;46916;40.564;-7.958;2023-12-20T00:14:18;98862.44;;;6.32;82.76
61035;BME280;46916;40.564;-7.958;2023-12-20T00:16:19;98851.19;;;6.32;82.73
61035;BME280;46916;40.564;-7.958;2023-12-20T00:18:19;98850.84;;;6.39;82.56
61035;BME280;46916;40.564;-7.958;2023-12-20T00:20:20;98852.47;;;6.42;82.49
61035;BME280;46916;40.564;-7.958;2023-12-20T00:22:21;98851.69;;;6.40;82.75
61035;BME280;46916;40.564;-7.958;2023-12-20T00:24:22;98848.44;;;6.35;82.79
61035;BME280;46916;40.564;-7.958;2023-12-20T00:26:22;98859.47;;;6.40;82.83
61035;BME280;46916;40.564;-7.958;2023-12-20T00:28:23;98853.53;;;6.38;82.85
61035;BME280;46916;40.564;-7.958;2023-12-20T00:30:24;98851.63;;;6.41;83.19
61035;BME280;46916;40.564;-7.958;2023-12-20T00:32:25;98851.53;;;6.43;82.96
61035;BME280;46916;40.564;-7.958;2023-12-20T00:34:25;98851.53;;;6.43;83.33
61035;BME280;46916;40.564;-7.958;2023-12-20T00:36:26;98844.78;;;6.39;83.27
61035;BME280;46916;40.564;-7.958;2023-12-20T00:38:27;98839.50;;;6.40;83.39
61035;BME280;46916;40.564;-7.958;2023-12-20T00:40:27;98838.81;;;6.37;83.59
61035;BME280;46916;40.564;-7.958;2023-12-20T00:42:28;98839.50;;;6.40;83.17
61035;BME280;46916;40.564;-7.958;2023-12-20T00:44:29;98843.03;;;6.39;82.82
61035;BME280;46916;40.564;-7.958;2023-12-20T00:46:30;98840.63;;;6.35;83.15
61035;BME280;46916;40.564;-7.958;2023-12-20T00:48:32;98839.88;;;6.33;83.06
61035;BME280;46916;40.564;-7.958;2023-12-20T00:50:33;98834.59;;;6.34;83.67
61035;BME280;46916;40.564;-7.958;2023-12-20T00:52:34;98838.75;;;6.38;83.47
61035;BME280;46916;40.564;-7.958;2023-12-20T00:54:35;98830.09;;;6.38;83.51
61035;BME280;46916;40.564;-7.958;2023-12-20T00:56:35;98835.00;;;6.44;82.99
61035;BME280;46916;40.564;-7.958;2023-12-20T00:58:36;98822.91;;;6.43;83.42
61035;BME280;46916;40.564;-7.958;2023-12-20T01:00:37;98821.16;;;6.43;82.92
61035;BME280;46916;40.564;-7.958;2023-12-20T01:02:38;98814.13;;;6.45;82.93
61035;BME280;46916;40.564;-7.958;2023-12-20T01:04:39;98818.13;;;6.53;82.98
61035;BME280;46916;40.564;-7.958;2023-12-20T01:06:40;98802.50;;;6.53;82.63
61035;BME280;46916;40.564;-7.958;2023-12-20T01:08:40;98806.88;;;6.52;82.77
61035;BME280;46916;40.564;-7.958;2023-12-20T01:10:41;98805.09;;;6.53;82.96
61035;BME280;46916;40.564;-7.958;2023-12-20T01:12:42;98813.00;;;6.51;82.86
61035;BME280;46916;40.564;-7.958;2023-12-20T01:14:43;98803.38;;;6.53;82.64
61035;BME280;46916;40.564;-7.958;2023-12-20T01:16:44;98807.72;;;6.53;82.71
61035;BME280;46916;40.564;-7.958;2023-12-20T01:18:44;98801.84;;;6.49;83.17
61035;BME280;46916;40.564;-7.958;2023-12-20T01:20:45;98801.13;;;6.45;83.48
61035;BME280;46916;40.564;-7.958;2023-12-20T01:22:46;98790.53;;;6.49;83.21
61035;BME280;46916;40.564;-7.958;2023-12-20T01:24:46;98788.94;;;6.46;83.25
61035;BME280;46916;40.564;-7.958;2023-12-20T01:26:47;98789.88;;;6.45;83.31
61035;BME280;46916;40.564;-7.958;2023-12-20T01:28:48;98788.88;;;6.48;83.79
61035;BME280;46916;40.564;-7.958;2023-12-20T01:30:49;98787.91;;;6.50;83.98
61035;BME280;46916;40.564;-7.958;2023-12-20T01:32:50;98782.56;;;6.53;83.40
61035;BME280;46916;40.564;-7.958;2023-12-20T01:34:50;98779.94;;;6.53;83.62
61035;BME280;46916;40.564;-7.958;2023-12-20T01:36:51;98781.63;;;6.54;83.76
61035;BME280;46916;40.564;-7.958;2023-12-20T01:38:52;98771.50;;;6.48;83.94
61035;BME280;46916;40.564;-7.958;2023-12-20T01:40:52;98775.81;;;6.49;83.50
61035;BME280;46916;40.564;-7.958;2023-12-20T01:43:07;98770.59;;;6.49;83.77
61035;BME280;46916;40.564;-7.958;2023-12-20T01:45:09;98769.81;;;6.47;84.01
61035;BME280;46916;40.564;-7.958;2023-12-20T01:47:09;98769.72;;;6.49;84.36
61035;BME280;46916;40.564;-7.958;2023-12-20T01:49:11;98763.63;;;6.50;84.52
61035;BME280;46916;40.564;-7.958;2023-12-20T01:51:12;98752.38;;;6.49;84.07
61035;BME280;46916;40.564;-7.958;2023-12-20T01:53:13;98763.69;;;6.48;84.28
61035;BME280;46916;40.564;-7.958;2023-12-20T01:55:14;98752.56;;;6.44;84.34
61035;BME280;46916;40.564;-7.958;2023-12-20T01:57:15;98762.84;;;6.48;84.97
61035;BME280;46916;40.564;-7.958;2023-12-20T01:59:18;98750.66;;;6.48;84.99
61035;BME280;46916;40.564;-7.958;2023-12-20T02:01:19;98767.91;;;6.51;85.16
61035;BME280;46916;40.564;-7.958;2023-12-20T02:03:21;98750.63;;;6.50;84.61
61035;BME280;46916;40.564;-7.958;2023-12-20T02:05:22;98749.00;;;6.47;84.77
61035;BME280;46916;40.564;-7.958;2023-12-20T02:07:23;98747.94;;;6.51;85.25
61035;BME280;46916;40.564;-7.958;2023-12-20T02:09:23;98741.81;;;6.52;84.67
61035;BME280;46916;40.564;-7.958;2023-12-20T02:11:25;98757.28;;;6.55;84.82
61035;BME280;46916;40.564;-7.958;2023-12-20T02:13:26;98759.88;;;6.55;85.11
61035;BME280;46916;40.564;-7.958;2023-12-20T02:15:27;98754.81;;;6.52;84.80
61035;BME280;46916;40.564;-7.958;2023-12-20T02:17:27;98755.75;;;6.51;84.74
61035;BME280;46916;40.564;-7.958;2023-12-20T02:19:28;98757.41;;;6.52;85.24
61035;BME280;46916;40.564;-7.958;2023-12-20T02:21:32;98765.09;;;6.55;85.17
61035;BME280;46916;40.564;-7.958;2023-12-20T02:23:34;98772.06;;;6.55;85.17
61035;BME280;46916;40.564;-7.958;2023-12-20T02:25:35;98758.22;;;6.54;85.65
61035;BME280;46916;40.564;-7.958;2023-12-20T02:27:35;98754.91;;;6.51;86.04
61035;BME280;46916;40.564;-7.958;2023-12-20T02:29:36;98752.38;;;6.49;86.01
61035;BME280;46916;40.564;-7.958;2023-12-20T02:31:37;98755.59;;;6.54;86.40
61035;BME280;46916;40.564;-7.958;2023-12-20T02:33:38;98765.22;;;6.52;86.26
61035;BME280;46916;40.564;-7.958;2023-12-20T02:35:40;98762.09;;;6.45;87.21
61035;BME280;46916;40.564;-7.958;2023-12-20T02:37:40;98751.50;;;6.49;87.26
61035;BME280;46916;40.564;-7.958;2023-12-20T02:39:41;98764.47;;;6.50;88.40
61035;BME280;46916;40.564;-7.958;2023-12-20T02:41:42;98767.78;;;6.54;88.42
61035;BME280;46916;40.564;-7.958;2023-12-20T02:43:43;98771.13;;;6.56;89.11
61035;BME280;46916;40.564;-7.958;2023-12-20T02:45:44;98764.16;;;6.56;88.88
61035;BME280;46916;40.564;-7.958;2023-12-20T02:47:45;98756.34;;;6.56;89.39
61035;BME280;46916;40.564;-7.958;2023-12-20T02:49:46;98766.16;;;6.51;90.33
61035;BME280;46916;40.564;-7.958;2023-12-20T02:51:46;98750.75;;;6.47;90.63
61035;BME280;46916;40.564;-7.958;2023-12-20T02:53:47;98751.91;;;6.41;91.59
61035;BME280;46916;40.564;-7.958;2023-12-20T02:55:48;98749.44;;;6.38;91.71
61035;BME280;46916;40.564;-7.958;2023-12-20T02:57:49;98745.81;;;6.40;92.35
61035;BME280;46916;40.564;-7.958;2023-12-20T02:59:49;98744.09;;;6.41;92.39
61035;BME280;46916;40.564;-7.958;2023-12-20T03:01:50;98734.50;;;6.41;92.88
61035;BME280;46916;40.564;-7.958;2023-12-20T03:03:50;98752.66;;;6.43;93.46
61035;BME280;46916;40.564;-7.958;2023-12-20T03:05:51;98744.97;;;6.40;93.20
61035;BME280;46916;40.564;-7.958;2023-12-20T03:07:52;98747.59;;;6.40;93.44
61035;BME280;46916;40.564;-7.958;2023-12-20T03:09:53;98742.53;;;6.37;93.72
61035;BME280;46916;40.564;-7.958;2023-12-20T03:11:54;98744.97;;;6.40;93.89
61035;BME280;46916;40.564;-7.958;2023-12-20T03:13:55;98733.72;;;6.39;94.30
61035;BME280;46916;40.564;-7.958;2023-12-20T03:15:56;98723.28;;;6.41;93.71
61035;BME280;46916;40.564;-7.958;2023-12-20T03:17:56;98718.06;;;6.41;94.44
61035;BME280;46916;40.564;-7.958;2023-12-20T03:19:59;98722.47;;;6.39;94.53
61035;BME280;46916;40.564;-7.958;2023-12-20T03:22:00;98722.56;;;6.37;95.16
61035;BME280;46916;40.564;-7.958;2023-12-20T03:24:01;98720.81;;;6.38;94.61
61035;BME280;46916;40.564;-7.958;2023-12-20T03:26:02;98719.19;;;6.35;94.99
61035;BME280;46916;40.564;-7.958;2023-12-20T03:28:03;98726.00;;;6.38;95.43
61035;BME280;46916;40.564;-7.958;2023-12-20T03:30:05;98739.16;;;6.35;95.42
61035;BME280;46916;40.564;-7.958;2023-12-20T03:32:06;98730.44;;;6.36;95.33
61035;BME280;46916;40.564;-7.958;2023-12-20T03:34:08;98736.41;;;6.38;95.93
61035;BME280;46916;40.564;-7.958;2023-12-20T03:36:09;98727.81;;;6.36;95.35
61035;BME280;46916;40.564;-7.958;2023-12-20T03:38:10;98723.28;;;6.41;95.94
61035;BME280;46916;40.564;-7.958;2023-12-20T03:40:11;98717.91;;;6.44;95.12
61035;BME280;46916;40.564;-7.958;2023-12-20T03:42:12;98721.28;;;6.46;95.24
61035;BME280;46916;40.564;-7.958;2023-12-20T03:44:13;98719.53;;;6.47;95.68
61035;BME280;46916;40.564;-7.958;2023-12-20T03:46:14;98717.63;;;6.50;95.87
61035;BME280;46916;40.564;-7.958;2023-12-20T03:48:15;98708.88;;;6.51;95.52
61035;BME280;46916;40.564;-7.958;2023-12-20T03:50:16;98701.78;;;6.55;95.60
61035;BME280;46916;40.564;-7.958;2023-12-20T03:52:16;98702.47;;;6.58;95.56
61035;BME280;46916;40.564;-7.958;2023-12-20T03:54:17;98700.81;;;6.57;96.28
61035;BME280;46916;40.564;-7.958;2023-12-20T03:56:18;98692.34;;;6.52;97.30
61035;BME280;46916;40.564;-7.958;2023-12-20T03:58:18;98686.53;;;6.47;97.09
61035;BME280;46916;40.564;-7.958;2023-12-20T04:00:19;98687.38;;;6.48;97.33
61035;BME280;46916;40.564;-7.958;2023-12-20T04:02:20;98680.41;;;6.48;97.48
61035;BME280;46916;40.564;-7.958;2023-12-20T04:04:21;98666.50;;;6.49;97.74
61035;BME280;46916;40.564;-7.958;2023-12-20T04:06:21;98676.25;;;6.44;97.99
61035;BME280;46916;40.564;-7.958;2023-12-20T04:08:22;98682.25;;;6.46;98.51
61035;BME280;46916;40.564;-7.958;2023-12-20T04:10:23;98688.50;;;6.42;98.93
61035;BME280;46916;40.564;-7.958;2023-12-20T04:12:23;98681.91;;;6.35;98.81
61035;BME280;46916;40.564;-7.958;2023-12-20T04:14:24;98688.75;;;6.37;98.77
61035;BME280;46916;40.564;-7.958;2023-12-20T04:16:25;98675.50;;;6.42;98.67
61035;BME280;46916;40.564;-7.958;2023-12-20T04:18:26;98680.63;;;6.43;99.14
61035;BME280;46916;40.564;-7.958;2023-12-20T04:20:26;98672.91;;;6.42;98.47
61035;BME280;46916;40.564;-7.958;2023-12-20T04:22:27;98662.41;;;6.43;98.18
61035;BME280;46916;40.564;-7.958;2023-12-20T04:24:28;98665.78;;;6.45;99.05
61035;BME280;46916;40.564;-7.958;2023-12-20T04:26:28;98661.56;;;6.43;98.75
61035;BME280;46916;40.564;-7.958;2023-12-20T04:28:30;98649.63;;;6.39;99.42
61035;BME280;46916;40.564;-7.958;2023-12-20T04:30:30;98656.34;;;6.43;99.27
61035;BME280;46916;40.564;-7.958;2023-12-20T04:32:31;98658.69;;;6.49;98.71
61035;BME280;46916;40.564;-7.958;2023-12-20T04:34:32;98664.63;;;6.51;98.80
61035;BME280;46916;40.564;-7.958;2023-12-20T04:36:32;98664.72;;;6.50;98.96
61035;BME280;46916;40.564;-7.958;2023-12-20T04:38:33;98660.97;;;6.55;99.19
61035;BME280;46916;40.564;-7.958;2023-12-20T04:40:34;98657.38;;;6.58;98.83
61035;BME280;46916;40.564;-7.958;2023-12-20T04:42:34;98651.41;;;6.56;98.92
61035;BME280;46916;40.564;-7.958;2023-12-20T04:44:35;98668.56;;;6.60;98.64
61035;BME280;46916;40.564;-7.958;2023-12-20T04:46:36;98665.91;;;6.61;98.86
61035;BME280;46916;40.564;-7.958;2023-12-20T04:48:37;98647.03;;;6.56;99.18
61035;BME280;46916;40.564;-7.958;2023-12-20T04:50:38;98648.56;;;6.60;98.57
61035;BME280;46916;40.564;-7.958;2023-12-20T04:52:38;98639.22;;;6.56;99.19
61035;BME280;46916;40.564;-7.958;2023-12-20T04:54:39;98637.78;;;6.51;100.00
61035;BME280;46916;40.564;-7.958;2023-12-20T04:56:41;98643.44;;;6.41;100.00
61035;BME280;46916;40.564;-7.958;2023-12-20T04:58:42;98642.41;;;6.44;100.00
61035;BME280;46916;40.564;-7.958;2023-12-20T05:00:43;98644.13;;;6.45;100.00
61035;BME280;46916;40.564;-7.958;2023-12-20T05:02:44;98645.88;;;6.44;100.00
61035;BME280;46916;40.564;-7.958;2023-12-20T05:04:44;98647.84;;;6.39;100.00
61035;BME280;46916;40.564;-7.958;2023-12-20T05:06:45;98650.53;;;6.38;100.00
61035;BME280;46916;40.564;-7.958;2023-12-20T05:08:46;98654.72;;;6.40;100.00
61035;BME280;46916;40.564;-7.958;2023-12-20T05:10:47;98642.75;;;6.38;100.00
61035;BME280;46916;40.564;-7.958;2023-12-20T05:12:48;98652.34;;;6.36;100.00
61035;BME280;46916;40.564;-7.958;2023-12-20T05:14:48;98649.97;;;6.31;100.00
61035;BME280;46916;40.564;-7.958;2023-12-20T05:16:49;98648.44;;;6.27;100.00
61035;BME280;46916;40.564;-7.958;2023-12-20T05:18:50;98645.22;;;6.22;100.00
61035;BME280;46916;40.564;-7.958;2023-12-20T05:20:52;98643.78;;;6.16;100.00
61035;BME280;46916;40.564;-7.958;2023-12-20T05:22:53;98649.81;;;6.17;100.00
61035;BME280;46916;40.564;-7.958;2023-12-20T05:24:54;98656.78;;;6.16;100.00
61035;BME280;46916;40.564;-7.958;2023-12-20T05:26:55;98660.28;;;6.15;100.00
61035;BME280;46916;40.564;-7.958;2023-12-20T05:28:55;98657.53;;;6.18;100.00
61035;BME280;46916;40.564;-7.958;2023-12-20T05:30:56;98654.72;;;6.23;100.00
61035;BME280;46916;40.564;-7.958;2023-12-20T05:32:57;98657.41;;;6.22;100.00
61035;BME280;46916;40.564;-7.958;2023-12-20T05:34:57;98660.00;;;6.22;100.00
61035;BME280;46916;40.564;-7.958;2023-12-20T05:36:58;98671.31;;;6.20;100.00
61035;BME280;46916;40.564;-7.958;2023-12-20T05:38:59;98669.69;;;6.18;100.00
61035;BME280;46916;40.564;-7.958;2023-12-20T05:40:59;98668.88;;;6.17;100.00
61035;BME280;46916;40.564;-7.958;2023-12-20T05:43:00;98672.38;;;6.16;100.00
61035;BME280;46916;40.564;-7.958;2023-12-20T05:45:01;98672.16;;;6.21;100.00
61035;BME280;46916;40.564;-7.958;2023-12-20T05:47:02;98668.72;;;6.20;100.00
61035;BME280;46916;40.564;-7.958;2023-12-20T05:49:02;98667.19;;;6.16;100.00
61035;BME280;46916;40.564;-7.958;2023-12-20T05:51:03;98667.31;;;6.13;100.00
61035;BME280;46916;40.564;-7.958;2023-12-20T05:53:04;98672.53;;;6.13;100.00
61035;BME280;46916;40.564;-7.958;2023-12-20T05:55:05;98688.88;;;6.15;100.00
61035;BME280;46916;40.564;-7.958;2023-12-20T05:57:06;98704.72;;;6.11;100.00
61035;BME280;46916;40.564;-7.958;2023-12-20T05:59:07;98715.91;;;6.13;100.00
61035;BME280;46916;40.564;-7.958;2023-12-20T06:01:07;98710.00;;;6.09;100.00
61035;BME280;46916;40.564;-7.958;2023-12-20T06:03:08;98714.19;;;6.12;100.00
61035;BME280;46916;40.564;-7.958;2023-12-20T06:05:09;98715.94;;;6.11;100.00
61035;BME280;46916;40.564;-7.958;2023-12-20T06:07:14;98690.16;;;6.07;100.00
61035;BME280;46916;40.564;-7.958;2023-12-20T06:09:14;98694.31;;;6.11;100.00
61035;BME280;46916;40.564;-7.958;2023-12-20T06:11:15;98681.72;;;6.02;100.00
61035;BME280;46916;40.564;-7.958;2023-12-20T06:13:16;98671.25;;;6.03;100.00
61035;BME280;46916;40.564;-7.958;2023-12-20T06:15:17;98675.56;;;6.04;100.00
61035;BME280;46916;40.564;-7.958;2023-12-20T06:17:17;98673.31;;;5.97;100.00
61035;BME280;46916;40.564;-7.958;2023-12-20T06:19:18;98685.59;;;5.93;100.00
61035;BME280;46916;40.564;-7.958;2023-12-20T06:21:19;98702.75;;;5.97;100.00
61035;BME280;46916;40.564;-7.958;2023-12-20T06:23:19;98695.72;;;5.99;100.00
61035;BME280;46916;40.564;-7.958;2023-12-20T06:25:20;98695.56;;;6.02;100.00
61035;BME280;46916;40.564;-7.958;2023-12-20T06:27:21;98694.66;;;6.03;100.00
61035;BME280;46916;40.564;-7.958;2023-12-20T06:29:21;98698.19;;;6.02;100.00
61035;BME280;46916;40.564;-7.958;2023-12-20T06:31:22;98693.75;;;6.04;100.00
61035;BME280;46916;40.564;-7.958;2023-12-20T06:33:23;98691.00;;;6.07;100.00
61035;BME280;46916;40.564;-7.958;2023-12-20T06:35:24;98705.97;;;6.02;100.00
61035;BME280;46916;40.564;-7.958;2023-12-20T06:37:25;98709.50;;;6.01;100.00
61035;BME280;46916;40.564;-7.958;2023-12-20T06:39:25;98715.53;;;6.02;100.00
61035;BME280;46916;40.564;-7.958;2023-12-20T06:41:26;98708.66;;;6.01;100.00
61035;BME280;46916;40.564;-7.958;2023-12-20T06:43:27;98718.22;;;6.00;100.00
61035;BME280;46916;40.564;-7.958;2023-12-20T06:45:29;98731.34;;;5.97;100.00
61035;BME280;46916;40.564;-7.958;2023-12-20T06:47:30;98733.81;;;6.00;100.00
61035;BME280;46916;40.564;-7.958;2023-12-20T06:49:31;98728.69;;;5.99;100.00
61035;BME280;46916;40.564;-7.958;2023-12-20T06:51:32;98728.75;;;5.97;100.00
61035;BME280;46916;40.564;-7.958;2023-12-20T06:53:32;98722.84;;;5.93;100.00
61035;BME280;46916;40.564;-7.958;2023-12-20T06:55:35;98734.94;;;5.94;100.00
61035;BME280;46916;40.564;-7.958;2023-12-20T06:57:37;98728.97;;;5.91;100.00
61035;BME280;46916;40.564;-7.958;2023-12-20T06:59:41;98740.97;;;5.95;100.00
61035;BME280;46916;40.564;-7.958;2023-12-20T07:01:42;98747.81;;;5.98;100.00
61035;BME280;46916;40.564;-7.958;2023-12-20T07:03:43;98753.84;;;5.98;100.00
61035;BME280;46916;40.564;-7.958;2023-12-20T07:05:44;98763.41;;;5.98;100.00
61035;BME280;46916;40.564;-7.958;2023-12-20T07:07:45;98750.63;;;5.93;100.00
61035;BME280;46916;40.564;-7.958;2023-12-20T07:09:46;98769.66;;;5.93;100.00
61035;BME280;46916;40.564;-7.958;2023-12-20T07:11:47;98767.91;;;5.94;100.00
61035;BME280;46916;40.564;-7.958;2023-12-20T07:13:48;98767.91;;;5.94;100.00
61035;BME280;46916;40.564;-7.958;2023-12-20T07:15:50;98769.75;;;5.92;100.00
61035;BME280;46916;40.564;-7.958;2023-12-20T07:17:50;98775.78;;;5.92;100.00
61035;BME280;46916;40.564;-7.958;2023-12-20T07:19:51;98767.16;;;5.90;100.00
61035;BME280;46916;40.564;-7.958;2023-12-20T07:21:52;98774.09;;;5.90;100.00
61035;BME280;46916;40.564;-7.958;2023-12-20T07:23:53;98773.19;;;5.91;100.00
61035;BME280;46916;40.564;-7.958;2023-12-20T07:25:54;98780.13;;;5.92;100.00
61035;BME280;46916;40.564;-7.958;2023-12-20T07:27:55;98792.44;;;5.87;100.00
61035;BME280;46916;40.564;-7.958;2023-12-20T07:29:55;98788.38;;;5.81;100.00
61035;BME280;46916;40.564;-7.958;2023-12-20T07:31:56;98797.81;;;5.84;100.00
61035;BME280;46916;40.564;-7.958;2023-12-20T07:33:57;98793.28;;;5.87;100.00
61035;BME280;46916;40.564;-7.958;2023-12-20T07:35:59;98808.88;;;5.87;100.00
61035;BME280;46916;40.564;-7.958;2023-12-20T07:38:00;98809.88;;;5.85;100.00
61035;BME280;46916;40.564;-7.958;2023-12-20T07:40:01;98819.28;;;5.87;100.00
61035;BME280;46916;40.564;-7.958;2023-12-20T07:42:01;98827.16;;;5.86;100.00
61035;BME280;46916;40.564;-7.958;2023-12-20T07:44:03;98821.97;;;5.86;100.00
61035;BME280;46916;40.564;-7.958;2023-12-20T07:46:06;98831.44;;;5.87;100.00
61035;BME280;46916;40.564;-7.958;2023-12-20T07:48:07;98836.34;;;5.94;100.00
61035;BME280;46916;40.564;-7.958;2023-12-20T07:50:09;98835.59;;;5.91;100.00
61035;BME280;46916;40.564;-7.958;2023-12-20T07:52:10;98838.28;;;5.89;100.00
61035;BME280;46916;40.564;-7.958;2023-12-20T07:54:11;98828.00;;;5.86;100.00
61035;BME280;46916;40.564;-7.958;2023-12-20T07:56:18;98829.19;;;6.00;100.00
61035;BME280;46916;40.564;-7.958;2023-12-20T07:58:19;98844.88;;;5.98;100.00
61035;BME280;46916;40.564;-7.958;2023-12-20T08:00:20;98843.19;;;5.97;100.00
61035;BME280;46916;40.564;-7.958;2023-12-20T08:02:21;98838.63;;;6.02;100.00
61035;BME280;46916;40.564;-7.958;2023-12-20T08:04:22;98834.06;;;6.07;100.00
61035;BME280;46916;40.564;-7.958;2023-12-20T08:06:22;98842.78;;;6.06;100.00
61035;BME280;46916;40.564;-7.958;2023-12-20T08:08:24;98827.63;;;5.95;100.00
61035;BME280;46916;40.564;-7.958;2023-12-20T08:10:24;98833.69;;;5.96;100.00
61035;BME280;46916;40.564;-7.958;2023-12-20T08:12:25;98829.25;;;5.98;100.00
61035;BME280;46916;40.564;-7.958;2023-12-20T08:14:28;98840.72;;;5.94;100.00
61035;BME280;46916;40.564;-7.958;2023-12-20T08:16:28;98840.81;;;5.91;100.00
61035;BME280;46916;40.564;-7.958;2023-12-20T08:18:29;98841.63;;;5.91;100.00
61035;BME280;46916;40.564;-7.958;2023-12-20T08:20:30;98853.72;;;5.94;100.00
61035;BME280;46916;40.564;-7.958;2023-12-20T08:22:31;98842.63;;;5.89;100.00
61035;BME280;46916;40.564;-7.958;2023-12-20T08:24:31;98849.53;;;5.90;100.00
61035;BME280;46916;40.564;-7.958;2023-12-20T08:26:33;98849.53;;;5.90;100.00
61035;BME280;46916;40.564;-7.958;2023-12-20T08:28:34;98859.00;;;5.91;100.00
61035;BME280;46916;40.564;-7.958;2023-12-20T08:30:34;98856.31;;;5.94;100.00
61035;BME280;46916;40.564;-7.958;2023-12-20T08:32:35;98859.75;;;5.94;100.00
61035;BME280;46916;40.564;-7.958;2023-12-20T08:34:36;98849.53;;;5.90;100.00
61035;BME280;46916;40.564;-7.958;2023-12-20T08:36:36;98863.19;;;5.95;100.00
61035;BME280;46916;40.564;-7.958;2023-12-20T08:38:37;98866.59;;;5.97;100.00
61035;BME280;46916;40.564;-7.958;2023-12-20T08:40:38;98861.94;;;6.04;100.00
61035;BME280;46916;40.564;-7.958;2023-12-20T08:42:39;98866.50;;;5.99;100.00
61035;BME280;46916;40.564;-7.958;2023-12-20T08:44:40;98872.44;;;6.02;100.00
61035;BME280;46916;40.564;-7.958;2023-12-20T08:46:40;98878.06;;;6.12;100.00
61035;BME280;46916;40.564;-7.958;2023-12-20T08:48:42;98885.53;;;6.19;100.00
61035;BME280;46916;40.564;-7.958;2023-12-20T08:50:43;98880.72;;;6.31;100.00
61035;BME280;46916;40.564;-7.958;2023-12-20T08:52:44;98885.13;;;6.49;100.00
61035;BME280;46916;40.564;-7.958;2023-12-20T08:54:44;98896.44;;;6.67;100.00
61035;BME280;46916;40.564;-7.958;2023-12-20T08:56:45;98889.63;;;6.83;100.00
61035;BME280;46916;40.564;-7.958;2023-12-20T08:58:47;98895.09;;;6.96;100.00
61035;BME280;46916;40.564;-7.958;2023-12-20T09:00:47;98894.53;;;7.08;100.00
61035;BME280;46916;40.564;-7.958;2023-12-20T09:02:48;98892.72;;;7.10;100.00
61035;BME280;46916;40.564;-7.958;2023-12-20T09:04:49;98894.09;;;7.17;100.00
61035;BME280;46916;40.564;-7.958;2023-12-20T09:06:50;98892.66;;;7.29;100.00
61035;BME280;46916;40.564;-7.958;2023-12-20T09:08:51;98887.88;;;7.39;100.00
61035;BME280;46916;40.564;-7.958;2023-12-20T09:10:52;98890.88;;;7.49;100.00
61035;BME280;46916;40.564;-7.958;2023-12-20T09:12:53;98900.84;;;7.58;100.00
61035;BME280;46916;40.564;-7.958;2023-12-20T09:14:57;98902.94;;;7.68;100.00
61035;BME280;46916;40.564;-7.958;2023-12-20T09:16:58;98904.16;;;7.79;100.00
61035;BME280;46916;40.564;-7.958;2023-12-20T09:19:01;98905.25;;;7.92;100.00
61035;BME280;46916;40.564;-7.958;2023-12-20T09:21:02;98905.53;;;8.03;100.00
61035;BME280;46916;40.564;-7.958;2023-12-20T09:23:03;98909.97;;;8.18;100.00
61035;BME280;46916;40.564;-7.958;2023-12-20T09:25:05;98918.84;;;8.32;100.00
61035;BME280;46916;40.564;-7.958;2023-12-20T09:27:06;98903.84;;;8.37;100.00
61035;BME280;46916;40.564;-7.958;2023-12-20T09:29:06;98922.22;;;8.51;100.00
61035;BME280;46916;40.564;-7.958;2023-12-20T09:31:08;98916.50;;;8.60;100.00
61035;BME280;46916;40.564;-7.958;2023-12-20T09:33:09;98909.09;;;8.68;100.00
61035;BME280;46916;40.564;-7.958;2023-12-20T09:35:09;98929.03;;;8.87;100.00
61035;BME280;46916;40.564;-7.958;2023-12-20T09:37:10;98935.28;;;9.00;100.00
61035;BME280;46916;40.564;-7.958;2023-12-20T09:39:13;98928.63;;;9.10;100.00
61035;BME280;46916;40.564;-7.958;2023-12-20T09:41:14;98936.38;;;9.28;100.00
61035;BME280;46916;40.564;-7.958;2023-12-20T09:43:15;98936.66;;;9.39;100.00
61035;BME280;46916;40.564;-7.958;2023-12-20T09:45:20;98943.81;;;9.51;100.00
61035;BME280;46916;40.564;-7.958;2023-12-20T09:47:25;98938.03;;;9.60;100.00
61035;BME280;46916;40.564;-7.958;2023-12-20T09:49:27;98937.63;;;9.68;100.00
61035;BME280;46916;40.564;-7.958;2023-12-20T09:51:29;98945.03;;;9.76;100.00
61035;BME280;46916;40.564;-7.958;2023-12-20T09:53:30;98928.13;;;9.81;100.00
61035;BME280;46916;40.564;-7.958;2023-12-20T09:55:33;98933.50;;;9.94;100.00
61035;BME280;46916;40.564;-7.958;2023-12-20T09:57:34;98933.78;;;10.04;100.00
61035;BME280;46916;40.564;-7.958;2023-12-20T09:59:35;98938.19;;;10.03;100.00
61035;BME280;46916;40.564;-7.958;2023-12-20T10:01:38;98934.81;;;10.01;100.00
61035;BME280;46916;40.564;-7.958;2023-12-20T10:03:41;98931.44;;;9.99;100.00
61035;BME280;46916;40.564;-7.958;2023-12-20T10:05:43;98937.72;;;10.11;100.00
61035;BME280;46916;40.564;-7.958;2023-12-20T10:07:46;98944.97;;;10.22;100.00
61035;BME280;46916;40.564;-7.958;2023-12-20T10:09:51;98944.34;;;10.32;100.00
61035;BME280;46916;40.564;-7.958;2023-12-20T10:11:54;98943.53;;;10.46;100.00
61035;BME280;46916;40.564;-7.958;2023-12-20T10:14:01;98951.50;;;10.59;99.53
61035;BME280;46916;40.564;-7.958;2023-12-20T10:16:02;98952.22;;;10.61;99.25
61035;BME280;46916;40.564;-7.958;2023-12-20T10:18:04;98956.09;;;10.70;98.96
61035;BME280;46916;40.564;-7.958;2023-12-20T10:20:06;98956.66;;;10.75;97.53
61035;BME280;46916;40.564;-7.958;2023-12-20T10:22:10;98958.34;;;10.76;96.71
61035;BME280;46916;40.564;-7.958;2023-12-20T10:24:17;98959.09;;;10.78;95.09
61035;BME280;46916;40.564;-7.958;2023-12-20T10:26:22;98961.31;;;10.84;94.32
61035;BME280;46916;40.564;-7.958;2023-12-20T10:28:23;98965.25;;;10.91;94.01
61035;BME280;46916;40.564;-7.958;2023-12-20T10:30:28;98955.91;;;10.87;93.22
61035;BME280;46916;40.564;-7.958;2023-12-20T10:32:28;98963.84;;;10.85;92.01
61035;BME280;46916;40.564;-7.958;2023-12-20T10:34:32;98961.03;;;10.88;91.06
61035;BME280;46916;40.564;-7.958;2023-12-20T10:36:33;98959.53;;;10.84;91.63